Time;durP1;ratioP1;P1;durP2;ratioP2;P2;SDS_P1;SDS_P2;PMS_P1;PMS_P2;Temp;Humidity;BMP_temperature;BMP_pressure;BME280_temperature;BME280_humidity;BME280_pressure;Samples;Min_cycle;Max_cycle;Signal;HPM_P1;HPM_P2
2021/10/09 00:00:08;;;;;;;57.20;46.70;;;9.10;1.00;9.80;101699.00;;;;5007956;28;20457;-74
2021/10/09 00:02:38;;;;;;;51.53;43.20;;;9.10;1.00;9.80;101682.00;;;;5022892;28;20473;-76
2021/10/09 00:05:08;;;;;;;62.10;47.00;;;9.10;1.00;9.80;101684.00;;;;5006592;28;21482;-76
2021/10/09 00:07:37;;;;;;;57.60;45.67;;;9.10;1.00;9.80;101657.00;;;;5021823;28;20473;-75
2021/10/09 00:10:08;;;;;;;57.73;46.70;;;9.00;1.00;9.80;101664.00;;;;5007162;28;21343;-76
2021/10/09 00:12:37;;;;;;;60.10;47.97;;;9.00;1.00;9.70;101693.00;;;;5021275;28;20489;-75
2021/10/09 00:15:07;;;;;;;56.60;45.73;;;9.00;1.00;9.70;101691.00;;;;5005829;28;20484;-76
2021/10/09 00:17:37;;;;;;;64.93;47.50;;;9.00;1.00;9.70;101689.00;;;;5023077;28;20497;-79
2021/10/09 00:20:07;;;;;;;61.97;48.20;;;8.90;1.00;9.70;101689.00;;;;5006128;28;20552;-77
2021/10/09 00:22:35;;;;;;;53.20;44.57;;;8.90;1.00;9.70;101701.00;;;;5023072;28;20457;-75
2021/10/09 00:25:04;;;;;;;55.67;45.47;;;8.90;1.00;9.70;101699.00;;;;5007830;28;20465;-76
2021/10/09 00:27:33;;;;;;;55.93;44.70;;;8.90;1.00;9.70;101697.00;;;;5008285;28;20562;-75
2021/10/09 00:30:01;;;;;;;62.97;47.10;;;9.00;1.00;9.60;101554.00;;;;5022038;28;20540;-74
2021/10/09 00:32:30;;;;;;;52.73;45.63;;;8.90;1.00;9.60;101699.00;;;;5008370;28;20452;-75
2021/10/09 00:35:00;;;;;;;56.27;46.37;;;8.90;1.00;9.60;101699.00;;;;5025280;28;20442;-75
2021/10/09 00:37:28;;;;;;;56.47;44.40;;;8.80;1.00;9.60;101685.00;;;;5008770;28;20470;-75
2021/10/09 00:39:57;;;;;;;55.33;44.77;;;8.90;1.00;9.50;101698.00;;;;5007759;28;20978;-79
2021/10/09 00:42:25;;;;;;;60.13;47.57;;;8.90;1.00;9.50;101694.00;;;;5007978;28;21024;-77
2021/10/09 00:44:54;;;;;;;58.60;45.20;;;8.80;1.00;9.50;101692.00;;;;5006241;28;20508;-75
2021/10/09 00:47:25;;;;;;;64.83;47.60;;;8.80;1.00;9.40;101690.00;;;;5006592;28;20477;-74
2021/10/09 00:49:53;;;;;;;58.83;45.57;;;8.90;1.00;9.40;101555.00;;;;5008031;28;20478;-77
2021/10/09 00:52:26;;;;;;;64.10;47.67;;;8.60;1.00;9.40;101647.00;;;;5008195;28;20460;-75
2021/10/09 00:54:59;;;;;;;55.80;45.40;;;8.70;1.00;9.40;101688.00;;;;5026467;28;20445;-74
2021/10/09 00:57:29;;;;;;;60.50;47.07;;;8.60;1.00;9.40;101667.00;;;;5021861;28;20466;-79
2021/10/09 01:00:00;;;;;;;58.57;46.20;;;8.60;1.00;9.40;101682.00;;;;5035554;28;20497;-79
2021/10/09 01:02:29;;;;;;;63.00;47.80;;;8.70;1.00;9.40;101684.00;;;;5032521;28;20496;-78
2021/10/09 01:04:59;;;;;;;63.20;46.57;;;8.60;1.00;9.40;101676.00;;;;5030351;28;20912;-80
2021/10/09 01:07:29;;;;;;;61.80;46.60;;;8.60;1.00;9.40;101549.00;;;;5010585;28;20561;-76
2021/10/09 01:09:58;;;;;;;59.90;43.67;;;8.70;1.00;9.40;101677.00;;;;5007555;28;21464;-76
2021/10/09 01:12:27;;;;;;;51.20;43.07;;;8.70;1.00;9.40;101678.00;;;;5005791;28;20461;-75
2021/10/09 01:14:55;;;;;;;52.37;42.87;;;8.70;1.00;9.40;101674.00;;;;5004822;28;20818;-75
2021/10/09 01:17:24;;;;;;;49.00;41.53;;;8.70;1.00;9.30;101673.00;;;;5020533;28;20477;-75
2021/10/09 01:19:53;;;;;;;57.00;45.83;;;8.60;1.00;9.30;101665.00;;;;5002610;28;20834;-76
2021/10/09 01:22:23;;;;;;;53.80;44.80;;;8.60;1.00;9.20;101668.00;;;;5019921;28;20458;-76
2021/10/09 01:24:51;;;;;;;61.40;44.73;;;8.60;1.00;9.20;101550.00;;;;5003218;28;20465;-75
2021/10/09 01:27:20;;;;;;;58.60;43.90;;;8.40;1.00;9.20;101661.00;;;;5017061;28;20527;-76
2021/10/09 01:29:48;;;;;;;60.47;45.20;;;8.50;1.00;9.20;101657.00;;;;5003784;28;20496;-76
2021/10/09 01:32:20;;;;;;;57.20;45.80;;;8.40;1.00;9.10;101660.00;;;;5003095;28;20485;-76
2021/10/09 01:34:49;;;;;;;56.97;47.27;;;8.40;1.00;9.10;101573.00;;;;5000878;28;20489;-75
2021/10/09 01:37:19;;;;;;;58.87;44.70;;;8.40;1.00;9.10;101663.00;;;;5002007;28;20477;-76
2021/10/09 01:39:50;;;;;;;58.97;45.90;;;8.40;1.00;9.00;101646.00;;;;5004269;28;20509;-75
2021/10/09 01:42:32;;;;;;;58.17;46.13;;;8.40;1.00;9.00;101638.00;;;;5024981;28;20462;-74
2021/10/09 01:45:01;;;;;;;63.13;47.50;;;8.30;1.00;9.00;101624.00;;;;5025186;28;21014;-76
2021/10/09 01:47:29;;;;;;;62.33;46.10;;;8.30;1.00;9.00;101660.00;;;;5008558;28;20497;-76
2021/10/09 01:49:58;;;;;;;65.60;48.77;;;8.30;1.00;9.00;101651.00;;;;5004025;28;20801;-78
2021/10/09 01:52:26;;;;;;;54.87;45.57;;;8.30;1.00;9.00;101667.00;;;;5005291;28;20458;-78
2021/10/09 01:54:57;;;;;;;55.47;44.93;;;8.30;1.00;8.90;101562.00;;;;5003743;28;20470;-73
2021/10/09 01:57:25;;;;;;;58.50;46.00;;;8.20;1.00;8.90;101566.00;;;;5003829;28;20470;-75
2021/10/09 01:59:55;;;;;;;63.07;47.43;;;8.20;1.00;8.90;101655.00;;;;5000850;28;20457;-76
2021/10/09 02:02:28;;;;;;;58.97;46.37;;;8.20;1.00;8.90;101649.00;;;;5002073;28;20554;-76
2021/10/09 02:04:57;;;;;;;57.40;45.90;;;8.20;1.00;8.90;101663.00;;;;5002264;28;20466;-76
2021/10/09 02:07:26;;;;;;;57.70;45.50;;;8.20;1.00;8.90;101532.00;;;;5001762;28;20478;-77
2021/10/09 02:10:06;;;;;;;54.77;45.47;;;8.20;1.00;8.80;101648.00;;;;5005010;28;20957;-77
2021/10/09 02:12:34;;;;;;;56.13;46.07;;;8.10;1.00;8.80;101647.00;;;;5000602;28;20481;-76
2021/10/09 02:15:08;;;;;;;61.07;46.27;;;8.10;1.00;8.70;101652.00;;;;5001236;28;20557;-76
2021/10/09 02:26:02;;;;;;;67.33;49.00;;;7.90;1.00;8.60;101640.00;;;;5018899;28;20477;-76
2021/10/09 02:28:32;;;;;;;64.10;49.50;;;7.80;1.00;8.40;101533.00;;;;5001839;28;20466;-77
2021/10/09 02:31:00;;;;;;;66.13;47.83;;;7.80;1.00;8.60;101642.00;;;;5016478;28;20481;-76
2021/10/09 02:33:29;;;;;;;60.50;46.47;;;7.70;1.00;8.50;101643.00;;;;5046529;28;20441;-75
2021/10/09 02:36:01;;;;;;;61.77;49.17;;;7.70;1.00;8.60;101648.00;;;;5019123;28;20531;-77
2021/10/09 02:38:30;;;;;;;65.80;49.17;;;7.70;1.00;8.60;101641.00;;;;5006954;28;20521;-74
2021/10/09 02:40:58;;;;;;;66.53;50.13;;;7.80;1.00;8.60;101617.00;;;;5023454;28;20516;-75
2021/10/09 02:43:28;;;;;;;63.43;48.63;;;7.90;1.00;8.60;101654.00;;;;5005691;28;20492;-78
2021/10/09 02:45:56;;;;;;;66.70;46.17;;;8.00;1.00;8.60;101639.00;;;;5005327;28;20458;-76
2021/10/09 02:48:30;;;;;;;65.07;45.43;;;7.90;1.00;8.60;101660.00;;;;5021081;28;20449;-77
2021/10/09 02:50:59;;;;;;;57.90;46.60;;;7.80;1.00;8.60;101657.00;;;;5003718;28;20477;-76
2021/10/09 02:53:28;;;;;;;62.23;49.30;;;7.80;1.00;8.70;101662.00;;;;5004598;28;20464;-75
2021/10/09 02:55:57;;;;;;;62.80;47.07;;;7.90;1.00;8.60;101641.00;;;;5010020;28;20496;-79
2021/10/09 02:58:29;;;;;;;58.07;46.47;;;7.90;1.00;8.60;101640.00;;;;5022230;28;20480;-77
2021/10/09 03:00:58;;;;;;;60.30;45.70;;;7.80;1.00;8.50;101632.00;;;;5025262;28;20458;-74
2021/10/09 03:03:26;;;;;;;71.33;49.97;;;7.80;1.00;8.60;101652.00;;;;5044642;28;20485;-76
2021/10/09 03:05:55;;;;;;;64.47;47.17;;;7.90;1.00;8.60;101651.00;;;;5031333;28;20453;-75
2021/10/09 03:08:23;;;;;;;60.40;47.53;;;7.90;1.00;8.50;101647.00;;;;5021214;28;20461;-77
2021/10/09 03:10:52;;;;;;;59.97;48.80;;;8.00;1.00;8.70;101622.00;;;;5006663;28;21269;-74
2021/10/09 03:13:20;;;;;;;59.63;46.60;;;8.10;1.00;8.70;101653.00;;;;5004055;28;20463;-77
2021/10/09 03:15:52;;;;;;;60.63;45.80;;;8.10;1.00;8.80;101651.00;;;;5003763;28;20557;-77
2021/10/09 03:18:20;;;;;;;64.83;47.10;;;8.10;1.00;8.70;101661.00;;;;5003311;28;20536;-77
2021/10/09 03:20:49;;;;;;;59.90;46.20;;;8.10;1.00;8.80;101654.00;;;;5005812;28;20515;-76
2021/10/09 03:23:18;;;;;;;59.97;44.77;;;8.20;1.00;8.80;101639.00;;;;5007853;28;20462;-76
2021/10/09 03:25:47;;;;;;;61.50;44.90;;;8.20;1.00;8.80;101634.00;;;;5005933;28;20477;-76
2021/10/09 03:28:20;;;;;;;58.67;44.67;;;8.20;1.00;8.80;101659.00;;;;5004107;28;20871;-75
2021/10/09 03:30:49;;;;;;;59.67;43.67;;;8.30;1.00;8.90;101657.00;;;;5003808;28;20653;-76
2021/10/09 03:33:19;;;;;;;54.73;41.80;;;8.30;1.00;8.90;101660.00;;;;5021479;28;20464;-77
2021/10/09 03:35:48;;;;;;;55.73;43.30;;;8.30;1.00;8.90;101645.00;;;;5007705;28;20457;-76
2021/10/09 03:38:16;;;;;;;53.90;43.00;;;8.30;1.00;8.90;101576.00;;;;5030022;28;20465;-74
2021/10/09 03:40:48;;;;;;;55.90;43.47;;;8.30;1.00;8.90;101659.00;;;;5010163;28;20457;-76
2021/10/09 03:43:19;;;;;;;57.60;45.60;;;8.30;1.00;8.80;101647.00;;;;5001571;28;20456;-74
2021/10/09 03:45:53;;;;;;;53.57;43.67;;;8.30;1.00;8.80;101638.00;;;;5003703;28;20927;-77
2021/10/09 03:48:31;;;;;;;62.63;45.87;;;8.30;1.00;8.80;101656.00;;;;5001072;28;20461;-76
2021/10/09 03:53:47;;;;;;;59.90;45.10;;;8.30;1.00;8.80;101635.00;;;;5019004;28;20468;-76
2021/10/09 03:56:15;;;;;;;55.70;45.13;;;8.30;1.00;8.80;101520.00;;;;5004975;28;20949;-75
2021/10/09 03:58:48;;;;;;;57.67;43.60;;;8.30;1.00;8.80;101663.00;;;;5013534;28;20549;-77
2021/10/09 04:01:18;;;;;;;53.73;43.67;;;8.20;1.00;8.80;101643.00;;;;5009901;28;20462;-76
2021/10/09 04:03:48;;;;;;;57.53;43.20;;;8.20;1.00;8.70;101656.00;;;;5009793;28;20484;-76
2021/10/09 04:06:17;;;;;;;54.80;44.67;;;8.20;1.00;8.70;101667.00;;;;5034050;28;20477;-76
2021/10/09 04:08:45;;;;;;;57.23;42.53;;;8.20;1.00;8.70;101625.00;;;;5020412;28;20449;-78
2021/10/09 04:11:17;;;;;;;54.20;43.83;;;8.20;1.00;8.70;101653.00;;;;5012747;28;20470;-75
2021/10/09 04:13:46;;;;;;;62.23;45.50;;;8.20;1.00;8.70;101646.00;;;;5025014;28;20457;-77
2021/10/09 04:16:14;;;;;;;53.50;43.77;;;8.20;1.00;8.70;101664.00;;;;5007395;28;20997;-78
2021/10/09 04:18:43;;;;;;;59.17;45.63;;;8.20;1.00;8.70;101672.00;;;;5022596;28;20551;-75
2021/10/09 04:21:14;;;;;;;63.20;46.27;;;8.10;1.00;8.60;101656.00;;;;5006894;28;20450;-75
2021/10/09 04:23:42;;;;;;;55.33;45.20;;;8.10;1.00;8.60;101653.00;;;;5022154;28;20507;-75
2021/10/09 04:26:11;;;;;;;62.17;46.50;;;8.20;1.00;8.50;101642.00;;;;5022138;28;20481;-74
2021/10/09 04:28:40;;;;;;;71.90;48.83;;;8.00;1.00;8.50;101666.00;;;;5021179;28;20879;-74
2021/10/09 04:31:10;;;;;;;60.43;47.60;;;7.90;1.00;8.40;101657.00;;;;5006593;28;20453;-74
2021/10/09 04:33:38;;;;;;;62.67;48.90;;;7.80;1.00;8.40;101656.00;;;;5003592;28;20886;-76
2021/10/09 04:36:09;;;;;;;58.00;47.23;;;7.80;1.00;8.40;101664.00;;;;5004856;28;20481;-74
2021/10/09 04:38:39;;;;;;;60.67;46.83;;;7.90;1.00;8.30;101656.00;;;;5002056;28;21021;-74
2021/10/09 04:41:08;;;;;;;61.90;49.23;;;7.80;1.00;8.30;101636.00;;;;5003441;28;20489;-76
2021/10/09 04:43:37;;;;;;;67.23;50.30;;;7.80;1.00;8.30;101654.00;;;;5002016;28;20462;-77
2021/10/09 04:46:06;;;;;;;62.53;47.13;;;7.80;1.00;8.30;101632.00;;;;5002633;28;20493;-75
2021/10/09 04:48:37;;;;;;;62.40;46.80;;;7.70;1.00;8.40;101638.00;;;;5015546;28;20515;-76
2021/10/09 04:51:06;;;;;;;57.40;44.50;;;7.90;1.00;8.50;101657.00;;;;5018650;28;20965;-75
2021/10/09 04:53:35;;;;;;;53.43;45.60;;;7.90;1.00;8.50;101632.00;;;;5007436;28;20485;-74
2021/10/09 04:56:06;;;;;;;57.20;45.80;;;8.00;1.00;8.50;101647.00;;;;5020565;28;20497;-75
2021/10/09 04:58:37;;;;;;;58.87;46.90;;;8.00;1.00;8.50;101657.00;;;;5004669;28;20466;-76
2021/10/09 05:01:07;;;;;;;57.97;46.00;;;8.00;1.00;8.50;101645.00;;;;5019775;28;20497;-76
2021/10/09 05:03:36;;;;;;;60.27;46.50;;;8.00;1.00;8.50;101655.00;;;;5006149;28;20989;-76
2021/10/09 05:06:05;;;;;;;62.60;47.57;;;8.00;1.00;8.50;101648.00;;;;5003725;28;21414;-80
2021/10/09 05:08:34;;;;;;;58.90;45.33;;;8.00;1.00;8.50;101654.00;;;;5021619;28;20540;-75
2021/10/09 05:11:02;;;;;;;65.13;47.80;;;8.00;1.00;8.50;101656.00;;;;5005104;28;20508;-75
2021/10/09 05:13:34;;;;;;;61.67;46.77;;;8.00;1.00;8.50;101631.00;;;;5022071;28;20486;-76
2021/10/09 05:16:03;;;;;;;62.93;46.40;;;7.90;1.00;8.50;101677.00;;;;5005586;28;20481;-77
2021/10/09 05:18:31;;;;;;;53.23;43.87;;;8.10;1.00;8.40;101670.00;;;;5005261;28;20453;-75
2021/10/09 05:21:00;;;;;;;58.40;45.70;;;7.90;1.00;8.40;101660.00;;;;5005636;28;20500;-75
2021/10/09 05:23:31;;;;;;;60.30;45.73;;;7.90;1.00;8.40;101664.00;;;;5005679;28;20458;-75
2021/10/09 05:26:03;;;;;;;59.17;46.33;;;7.90;1.00;8.40;101636.00;;;;5004599;28;20461;-77
2021/10/09 05:28:41;;;;;;;63.13;45.97;;;7.90;1.00;8.40;101668.00;;;;5004900;28;20483;-78
2021/10/09 05:31:21;;;;;;;61.07;46.90;;;7.90;1.00;8.40;101657.00;;;;5022040;28;20453;-77
2021/10/09 05:33:51;;;;;;;59.00;48.03;;;7.90;1.00;8.40;101645.00;;;;5005763;28;21344;-76
2021/10/09 05:36:19;;;;;;;61.10;46.97;;;7.90;1.00;8.40;101663.00;;;;5021304;28;20552;-75
2021/10/09 05:38:49;;;;;;;58.77;45.23;;;7.90;1.00;8.40;101664.00;;;;5004559;28;20465;-75
2021/10/09 05:41:18;;;;;;;55.30;44.10;;;7.90;1.00;8.40;101690.00;;;;5006103;28;20560;-76
2021/10/09 05:43:52;;;;;;;55.63;44.10;;;7.90;1.00;8.50;101676.00;;;;5027969;28;20468;-79
2021/10/09 05:46:22;;;;;;;56.57;46.20;;;7.90;1.00;8.50;101673.00;;;;5028367;28;20500;-79
2021/10/09 05:48:52;;;;;;;56.73;44.60;;;8.00;1.00;8.50;101688.00;;;;5025693;28;20450;-76
2021/10/09 05:51:23;;;;;;;53.40;43.07;;;8.00;1.00;8.50;101675.00;;;;5013441;28;20460;-76
2021/10/09 05:56:43;;;;;;;53.00;42.70;;;8.00;1.00;8.60;101685.00;;;;5006006;28;20473;-76
2021/10/09 05:59:59;;;;;;;49.20;41.60;;;8.10;1.00;8.60;101690.00;;;;5020976;28;20448;-76
2021/10/09 06:45:06;;;;;;;43.00;38.10;;;8.90;1.00;9.70;101710.00;;;;5013532;28;20565;-77
2021/10/09 06:47:37;;;;;;;42.70;36.23;;;9.00;1.00;9.70;101727.00;;;;5005273;28;20478;-76
2021/10/09 07:01:23;;;;;;;39.83;33.33;;;9.30;1.00;10.00;101733.00;;;;5005945;28;20462;-76
2021/10/09 07:03:51;;;;;;;38.13;33.40;;;9.30;1.00;10.10;101716.00;;;;5007188;28;20457;-75
2021/10/09 07:06:22;;;;;;;42.87;32.43;;;9.50;1.00;10.20;101740.00;;;;5003891;28;20569;-75
2021/10/09 07:09:03;;;;;;;40.40;31.60;;;9.50;1.00;10.30;101733.00;;;;5019084;28;20466;-75
2021/10/09 07:11:40;;;;;;;37.50;32.57;;;9.60;1.00;10.30;101728.00;;;;5008161;28;20454;-75
2021/10/09 07:14:09;;;;;;;41.90;32.30;;;9.70;1.00;10.40;101667.00;;;;5008249;28;20474;-76
2021/10/09 07:16:40;;;;;;;43.07;30.20;;;9.90;1.00;10.50;101740.00;;;;5005309;28;20500;-76
2021/10/09 07:19:09;;;;;;;35.37;30.33;;;9.80;1.00;10.50;101757.00;;;;5001896;28;20457;-75
2021/10/09 07:21:43;;;;;;;36.57;30.30;;;9.90;1.00;10.60;101752.00;;;;5003173;28;20481;-76
2021/10/09 07:24:34;;;;;;;36.87;29.20;;;9.90;1.00;10.60;101752.00;;;;5023001;28;20536;-76
2021/10/09 07:27:03;;;;;;;37.20;29.50;;;10.00;1.00;10.70;101738.00;;;;5005345;28;20477;-75
2021/10/09 07:29:32;;;;;;;36.10;29.03;;;9.90;1.00;10.70;101764.00;;;;5008120;28;20461;-78
2021/10/09 07:32:02;;;;;;;36.90;30.03;;;10.20;1.00;10.80;101751.00;;;;5028000;28;20446;-76
2021/10/09 07:34:31;;;;;;;37.10;30.17;;;10.20;1.00;10.90;101765.00;;;;5010531;28;21195;-75
2021/10/09 07:37:00;;;;;;;34.37;28.77;;;10.30;1.00;10.90;101753.00;;;;5009232;28;20481;-76
2021/10/09 07:39:29;;;;;;;34.17;26.30;;;10.30;1.00;11.00;101748.00;;;;5005288;28;20503;-76
2021/10/09 07:41:57;;;;;;;31.10;26.00;;;10.40;1.00;11.00;101756.00;;;;5011315;28;21284;-77
2021/10/09 07:44:26;;;;;;;30.80;26.33;;;10.50;1.00;10.90;101674.00;;;;5010277;28;20533;-76
2021/10/09 07:46:55;;;;;;;33.60;26.40;;;10.50;1.00;11.10;101697.00;;;;5006849;28;20473;-76
2021/10/09 07:49:23;;;;;;;30.40;24.27;;;10.50;1.00;11.20;101754.00;;;;5022750;28;20962;-76
2021/10/09 07:51:52;;;;;;;29.70;23.53;;;10.60;1.00;11.20;101764.00;;;;5005624;28;20472;-76
2021/10/09 07:54:23;;;;;;;30.80;24.20;;;10.70;1.00;11.30;101747.00;;;;5007304;28;20528;-75
2021/10/09 07:56:51;;;;;;;28.90;24.20;;;10.70;1.00;11.30;101732.00;;;;5006123;28;20485;-77
2021/10/09 07:59:19;;;;;;;29.50;24.80;;;10.80;1.00;11.40;101755.00;;;;5009161;28;20564;-78
2021/10/09 08:01:48;;;;;;;29.30;24.67;;;10.90;1.00;11.50;101756.00;;;;5009072;28;20458;-77
2021/10/09 08:04:16;;;;;;;27.17;23.00;;;11.00;1.00;11.50;101748.00;;;;5006326;28;20462;-79
2021/10/09 08:06:45;;;;;;;28.60;23.13;;;11.10;1.00;11.60;101758.00;;;;5006214;28;20580;-77
2021/10/09 08:09:13;;;;;;;27.57;24.00;;;11.10;1.00;11.70;101761.00;;;;5023229;28;20479;-76
2021/10/09 08:11:43;;;;;;;26.17;22.37;;;11.20;1.00;11.70;101760.00;;;;5006054;28;20966;-80
2021/10/09 08:14:12;;;;;;;28.37;23.40;;;11.30;1.00;11.80;101766.00;;;;5008372;28;20483;-77
2021/10/09 08:16:43;;;;;;;29.30;22.30;;;11.30;1.00;11.80;101743.00;;;;5010178;28;20489;-76
2021/10/09 08:19:12;;;;;;;24.83;22.23;;;11.40;1.00;11.80;101764.00;;;;5008601;28;20472;-78
2021/10/09 08:21:42;;;;;;;25.07;20.67;;;11.50;1.00;12.00;101759.00;;;;5008218;28;20962;-76
2021/10/09 08:24:18;;;;;;;22.93;19.40;;;11.50;1.00;11.80;101760.00;;;;5008442;28;20947;-78
2021/10/09 08:35:29;;;;;;;25.23;19.40;;;11.80;1.00;12.30;101761.00;;;;5023588;28;21042;-76
2021/10/09 08:40:44;;;;;;;21.83;19.20;;;12.00;1.00;12.40;101700.00;;;;5019878;28;20453;-76
2021/10/09 08:43:13;;;;;;;21.63;19.20;;;12.10;1.00;12.50;101757.00;;;;5031850;28;20532;-75
2021/10/09 08:45:42;;;;;;;20.80;17.67;;;12.20;1.00;12.50;101763.00;;;;5013808;28;21211;-77
2021/10/09 08:48:11;;;;;;;19.50;16.93;;;12.20;1.00;12.60;101764.00;;;;5007200;28;20505;-79
2021/10/09 08:50:39;;;;;;;21.00;18.57;;;12.30;1.00;12.70;101759.00;;;;5008325;28;20442;-76
2021/10/09 08:53:11;;;;;;;20.10;17.27;;;12.40;1.00;12.80;101764.00;;;;5007399;28;20481;-76
2021/10/09 08:55:45;;;;;;;19.87;17.07;;;12.50;1.00;12.80;101763.00;;;;5021369;28;20466;-77
2021/10/09 09:01:23;;;;;;;23.93;18.50;;;12.50;1.00;13.00;101651.00;;;;5064264;27;20545;-81
2021/10/09 09:04:05;;;;;;;20.37;18.27;;;12.70;1.00;13.00;101756.00;;;;5065531;28;20498;-79
2021/10/09 09:32:29;;;;;;;21.27;17.60;;;13.30;1.00;13.60;101774.00;;;;5065743;28;20465;-78
2021/10/09 09:35:17;;;;;;;22.90;19.63;;;13.40;1.00;13.60;101649.00;;;;5062107;28;20566;-78
2021/10/09 09:40:41;;;;;;;22.23;17.50;;;13.60;1.00;13.90;101739.00;;;;5060027;28;20468;-77
2021/10/09 09:43:11;;;;;;;21.17;17.40;;;13.70;1.00;14.00;101751.00;;;;5077796;28;20967;-76
2021/10/09 09:45:40;;;;;;;23.10;17.20;;;13.80;1.00;14.00;101737.00;;;;5063331;28;20458;-80
2021/10/09 09:48:10;;;;;;;22.23;17.20;;;13.90;1.00;14.10;101734.00;;;;5067513;28;20463;-78
2021/10/09 09:50:40;;;;;;;18.67;15.10;;;14.00;1.00;14.20;101724.00;;;;5068785;28;20459;-79
2021/10/09 09:53:08;;;;;;;20.53;14.70;;;14.20;1.00;14.30;101737.00;;;;5065906;28;20569;-78
2021/10/09 09:55:37;;;;;;;19.33;14.77;;;14.30;1.00;14.30;101745.00;;;;5071740;28;20435;-81
2021/10/09 09:58:17;;;;;;;18.87;14.77;;;14.30;1.00;14.40;101733.00;;;;5078442;28;20451;-82
2021/10/09 10:00:46;;;;;;;17.13;14.50;;;14.30;1.00;14.50;101719.00;;;;5083305;28;20483;-83
2021/10/09 10:03:15;;;;;;;16.27;14.53;;;14.40;1.00;14.50;101713.00;;;;5084033;28;20449;-83
2021/10/09 10:05:46;;;;;;;16.13;13.60;;;14.40;1.00;14.60;101722.00;;;;5078117;28;20496;-77
2021/10/09 10:08:14;;;;;;;24.57;15.90;;;14.50;1.00;14.70;101720.00;;;;5067633;28;20454;-77
2021/10/09 10:10:43;;;;;;;17.40;15.30;;;14.60;1.00;14.70;101732.00;;;;5060502;28;20459;-80
2021/10/09 10:13:12;;;;;;;17.00;14.63;;;14.80;1.00;14.80;101721.00;;;;5051908;28;20444;-79
2021/10/09 10:15:40;;;;;;;19.07;14.73;;;14.70;1.00;14.90;101725.00;;;;5049672;28;20979;-77
2021/10/09 10:18:09;;;;;;;18.37;14.67;;;14.80;1.00;14.90;101720.00;;;;5050451;28;20440;-77
2021/10/09 10:20:50;;;;;;;17.03;14.40;;;14.80;1.00;15.00;101712.00;;;;5038631;28;20482;-77
2021/10/09 10:23:36;;;;;;;16.43;13.90;;;14.90;1.00;15.10;101719.00;;;;5054443;28;20462;-79
2021/10/09 10:26:28;;;;;;;17.00;13.13;;;15.00;1.00;15.10;101722.00;;;;5052268;28;20460;-79
2021/10/09 10:29:24;;;;;;;14.37;12.83;;;15.10;1.00;15.20;101722.00;;;;5050757;28;20444;-77
2021/10/09 10:32:18;;;;;;;16.40;13.40;;;15.10;1.00;15.20;101721.00;;;;5053661;28;20444;-76
2021/10/09 10:34:48;;;;;;;16.90;14.07;;;15.20;1.00;15.20;101718.00;;;;5071711;28;20572;-79
2021/10/09 10:37:37;;;;;;;15.40;13.30;;;15.20;1.00;15.30;101707.00;;;;5063213;28;21025;-80
2021/10/09 10:40:07;;;;;;;16.63;14.20;;;15.30;1.00;15.40;101715.00;;;;5068312;28;20609;-80
2021/10/09 10:42:37;;;;;;;18.57;13.93;;;15.30;1.00;15.50;101710.00;;;;5060306;28;20478;-78
2021/10/09 10:45:11;;;;;;;16.33;14.13;;;15.40;1.00;15.50;101708.00;;;;5053081;28;20535;-78
2021/10/09 10:47:59;;;;;;;17.50;14.57;;;15.50;1.00;15.60;101717.00;;;;5050436;28;20483;-78
2021/10/09 10:51:02;;;;;;;16.23;13.70;;;15.60;1.00;15.70;101710.00;;;;5050414;28;20451;-76
2021/10/09 10:54:17;;;;;;;16.47;12.43;;;15.80;1.00;15.80;101698.00;;;;5049143;28;20550;-78
2021/10/09 10:57:23;;;;;;;17.07;13.20;;;15.90;1.00;15.70;101702.00;;;;5047804;28;20525;-77
2021/10/09 11:00:13;;;;;;;16.80;12.80;;;15.90;1.00;15.90;101696.00;;;;5045546;28;20533;-78
2021/10/09 11:02:48;;;;;;;16.10;13.43;;;16.00;1.00;16.00;101702.00;;;;5048790;28;20871;-78
2021/10/09 11:05:17;;;;;;;14.03;12.50;;;16.00;1.00;16.10;101701.00;;;;5048751;28;20848;-77
2021/10/09 11:08:07;;;;;;;16.10;13.10;;;16.10;1.00;16.10;101697.00;;;;5048108;28;20464;-77
2021/10/09 11:10:47;;;;;;;15.20;12.60;;;16.20;1.00;16.20;101683.00;;;;5060166;28;20511;-79
2021/10/09 11:13:15;;;;;;;14.40;12.90;;;16.30;1.00;16.30;101681.00;;;;5069769;28;20452;-80
2021/10/09 11:15:47;;;;;;;16.03;11.70;;;16.40;1.00;16.40;101705.00;;;;5053469;28;20447;-76
2021/10/09 11:18:16;;;;;;;16.23;12.17;;;16.50;1.00;16.40;101692.00;;;;5048783;28;20439;-77
2021/10/09 11:20:46;;;;;;;13.90;11.70;;;16.60;1.00;16.50;101697.00;;;;5048365;28;20494;-79
2021/10/09 11:23:14;;;;;;;13.13;11.77;;;16.60;1.00;16.50;101625.00;;;;5046594;28;20551;-80
2021/10/09 11:25:48;;;;;;;13.10;11.70;;;16.70;1.00;16.50;101658.00;;;;5047579;28;20444;-80
2021/10/09 11:28:23;;;;;;;18.90;12.90;;;16.60;1.00;16.60;101696.00;;;;5046231;28;20452;-77
2021/10/09 11:30:54;;;;;;;13.53;12.10;;;16.80;1.00;16.60;101690.00;;;;5049921;28;20474;-79
2021/10/09 11:33:24;;;;;;;13.03;11.63;;;16.70;1.00;16.70;101696.00;;;;5048230;28;20907;-78
2021/10/09 11:35:53;;;;;;;16.20;10.97;;;16.80;1.00;16.70;101681.00;;;;5047471;28;20436;-78
2021/10/09 11:38:24;;;;;;;12.93;11.37;;;16.70;1.00;16.80;101686.00;;;;5046575;28;20997;-76
2021/10/09 11:40:57;;;;;;;13.33;11.07;;;16.80;1.00;16.80;101689.00;;;;5047299;28;20479;-79
2021/10/09 11:43:44;;;;;;;16.30;11.37;;;16.90;1.00;16.90;101688.00;;;;5046498;28;20889;-79
2021/10/09 11:46:31;;;;;;;12.60;10.60;;;17.00;1.00;17.00;101692.00;;;;5042028;28;20474;-77
2021/10/09 11:55:22;;;;;;;13.70;10.00;;;17.30;1.00;17.20;101680.00;;;;5045600;28;20688;-77
2021/10/09 11:57:52;;;;;;;16.37;10.13;;;17.40;1.00;17.20;101686.00;;;;5045349;28;20469;-78
2021/10/09 12:00:41;;;;;;;12.07;10.63;;;17.50;1.00;17.30;101684.00;;;;5046625;28;20475;-77
2021/10/09 12:03:30;;;;;;;12.80;9.73;;;17.50;1.00;17.40;101682.00;;;;5046987;28;20952;-77
2021/10/09 12:06:00;;;;;;;13.00;11.23;;;17.60;1.00;17.50;101678.00;;;;5047679;28;20493;-79
2021/10/09 12:08:31;;;;;;;14.73;8.93;;;17.60;1.00;17.50;101624.00;;;;5045709;28;20539;-79
2021/10/09 12:11:15;;;;;;;12.43;9.23;;;17.70;1.00;17.50;101622.00;;;;5044650;28;20489;-78
2021/10/09 12:13:56;;;;;;;10.90;9.30;;;17.70;1.00;17.50;101677.00;;;;5045758;28;20982;-77
2021/10/09 12:16:30;;;;;;;9.30;8.30;;;17.70;1.00;17.60;101666.00;;;;5044365;28;20570;-78
2021/10/09 12:19:02;;;;;;;9.03;8.13;;;17.60;1.00;17.30;101667.00;;;;5047447;28;20434;-78
2021/10/09 12:21:34;;;;;;;9.87;8.13;;;17.70;1.00;17.60;101653.00;;;;5047287;28;20586;-77
2021/10/09 12:24:17;;;;;;;12.30;7.83;;;17.70;1.00;17.60;101639.00;;;;5044636;28;20440;-80
2021/10/09 12:27:01;;;;;;;9.00;7.10;;;17.80;1.00;17.60;101666.00;;;;5044430;28;20562;-78
2021/10/09 12:29:34;;;;;;;10.10;7.70;;;17.90;1.00;17.70;101674.00;;;;5046830;28;20508;-82
2021/10/09 12:32:17;;;;;;;10.77;7.93;;;17.90;1.00;17.80;101656.00;;;;5046757;28;21384;-79
2021/10/09 12:34:47;;;;;;;9.60;7.87;;;18.00;1.00;17.90;101651.00;;;;5047941;28;20558;-77
2021/10/09 12:37:21;;;;;;;10.20;7.60;;;18.10;1.00;17.90;101581.00;;;;5038572;28;20468;-78
2021/10/09 12:40:09;;;;;;;9.33;8.00;;;18.20;1.00;17.90;101614.00;;;;5047648;28;20462;-77
2021/10/09 12:42:48;;;;;;;8.93;8.00;;;18.20;1.00;18.00;101648.00;;;;5061060;28;20472;-80
2021/10/09 12:45:19;;;;;;;12.57;7.90;;;18.20;1.00;18.00;101642.00;;;;5061200;28;20505;-77
2021/10/09 12:47:55;;;;;;;13.00;6.80;;;18.30;1.00;18.10;101516.00;;;;5046043;28;20463;-77
2021/10/09 12:50:25;;;;;;;12.00;8.83;;;18.30;1.00;18.10;101640.00;;;;5045380;28;20444;-77
2021/10/09 12:52:55;;;;;;;11.43;8.40;;;18.30;1.00;18.10;101619.00;;;;5044991;28;20456;-78
2021/10/09 12:55:26;;;;;;;12.20;7.60;;;18.30;1.00;18.10;101608.00;;;;5045912;28;20439;-79
2021/10/09 12:57:56;;;;;;;9.57;7.57;;;18.20;1.00;18.00;101616.00;;;;5045848;28;20988;-78
2021/10/09 13:00:28;;;;;;;9.40;8.37;;;18.20;1.00;18.10;101617.00;;;;5040530;28;20488;-77
2021/10/09 13:02:57;;;;;;;10.13;7.10;;;18.40;1.00;18.20;101629.00;;;;5045297;28;20479;-77
2021/10/09 13:05:28;;;;;;;9.90;7.40;;;18.50;1.00;17.90;101625.00;;;;5045598;28;20491;-78
2021/10/09 13:08:00;;;;;;;9.57;6.50;;;18.50;1.00;18.30;101537.00;;;;5045074;28;20903;-77